createdAt,value
2023-02-17T00:01:33.430Z,102290.59
2023-02-17T00:04:01.099Z,102295.03
2023-02-17T00:06:30.642Z,102296.59
2023-02-17T00:08:59.582Z,102306.94
2023-02-17T00:11:28.549Z,102302.44
2023-02-17T00:13:56.623Z,102305.03
2023-02-17T00:16:26.273Z,102305.91
2023-02-17T00:18:59.769Z,102310.25
2023-02-17T00:21:30.097Z,102304.25
2023-02-17T00:23:58.526Z,102307.00
2023-02-17T00:26:26.062Z,102298.22
2023-02-17T00:28:53.630Z,102305.41
2023-02-17T00:31:23.042Z,102302.81
2023-02-17T00:33:54.684Z,102307.19
2023-02-17T00:36:22.208Z,102307.19
2023-02-17T00:38:49.989Z,102308.06
2023-02-17T00:41:18.318Z,102306.28
2023-02-17T00:43:46.253Z,102308.03
2023-02-17T00:46:14.237Z,102315.13
2023-02-17T00:48:42.109Z,102309.03
2023-02-17T00:51:10.373Z,102298.56
2023-02-17T00:53:37.997Z,102299.75
2023-02-17T00:56:08.676Z,102313.66
2023-02-17T00:58:36.832Z,102307.44
2023-02-17T01:01:04.709Z,102303.81
2023-02-17T01:03:32.483Z,102300.06
2023-02-17T01:06:05.108Z,102301.88
2023-02-17T01:08:34.588Z,102291.28
2023-02-17T01:11:02.306Z,102300.00
2023-02-17T01:13:29.926Z,102297.19
2023-02-17T01:15:57.483Z,102292.03
2023-02-17T01:18:25.434Z,102295.50
2023-02-17T01:20:53.018Z,102293.09
2023-02-17T01:23:20.711Z,102300.72
2023-02-17T01:25:50.631Z,102299.94
2023-02-17T01:28:21.141Z,102301.53
2023-02-17T01:30:49.942Z,102298.84
2023-02-17T01:33:17.339Z,102307.44
2023-02-17T01:35:45.925Z,102301.25
2023-02-17T01:38:13.315Z,102309.28
2023-02-17T01:40:48.358Z,102297.97
2023-02-17T01:43:17.785Z,102292.72
2023-02-17T01:45:53.709Z,102295.19
2023-02-17T01:48:31.125Z,102302.16
2023-02-17T01:51:19.906Z,102295.50
2023-02-17T01:53:53.317Z,102303.16
2023-02-17T01:56:23.211Z,102297.25
2023-02-17T01:58:55.798Z,102309.41
2023-02-17T02:01:23.621Z,102298.91
2023-02-17T02:03:52.590Z,102297.06
2023-02-17T02:06:24.353Z,102310.13
2023-02-17T02:09:06.959Z,102305.75
2023-02-17T02:11:35.894Z,102299.78
2023-02-17T02:14:06.950Z,102303.47
2023-02-17T02:16:39.268Z,102298.09
2023-02-17T02:19:31.485Z,102299.84
2023-02-17T02:22:40.173Z,102298.84
2023-02-17T02:25:29.541Z,102307.53
2023-02-17T02:28:31.017Z,102299.53
2023-02-17T02:31:27.559Z,102303.88
2023-02-17T02:34:06.545Z,102301.56
2023-02-17T02:36:49.863Z,102300.41
2023-02-17T02:39:20.161Z,102300.44
2023-02-17T02:41:53.277Z,102303.91
2023-02-17T02:44:21.815Z,102301.34
2023-02-17T02:46:58.559Z,102301.50
2023-02-17T02:49:26.792Z,102297.13
2023-02-17T02:52:03.734Z,102301.44
2023-02-17T02:54:42.430Z,102285.63
2023-02-17T02:57:18.483Z,102287.28
2023-02-17T02:59:55.929Z,102285.41
2023-02-17T03:02:52.605Z,102286.13
2023-02-17T03:05:51.840Z,102275.19
2023-02-17T03:08:41.561Z,102265.56
2023-02-17T03:11:09.617Z,102262.91
2023-02-17T03:13:41.144Z,102268.09
2023-02-17T03:16:14.647Z,102267.25
2023-02-17T03:18:42.408Z,102270.88
2023-02-17T03:21:16.073Z,102267.31
2023-02-17T03:23:43.815Z,102278.44
2023-02-17T03:26:11.292Z,102273.31
2023-02-17T03:28:38.781Z,102276.94
2023-02-17T03:31:06.283Z,102277.81
2023-02-17T03:33:34.157Z,102275.97
2023-02-17T03:36:01.562Z,102270.69
2023-02-17T03:38:29.052Z,102283.88
2023-02-17T03:40:56.497Z,102277.59
2023-02-17T03:43:23.958Z,102284.56
2023-02-17T03:45:51.381Z,102277.66
2023-02-17T03:48:18.776Z,102277.75
2023-02-17T03:50:46.092Z,102283.78
2023-02-17T03:53:13.477Z,102279.41
2023-02-17T03:55:40.851Z,102279.47
2023-02-17T03:58:08.276Z,102283.72
2023-02-17T04:00:35.758Z,102291.56
2023-02-17T04:03:03.245Z,102290.63
2023-02-17T04:05:30.752Z,102295.69
2023-02-17T04:07:58.299Z,102303.63
2023-02-17T04:10:25.806Z,102308.94
2023-02-17T04:12:53.420Z,102314.94
2023-02-17T04:15:20.894Z,102314.97
2023-02-17T04:17:48.333Z,102313.97
2023-02-17T04:20:15.586Z,102322.19
2023-02-17T04:22:42.984Z,102321.22
2023-02-17T04:25:10.348Z,102326.50
2023-02-17T04:27:37.605Z,102326.56
2023-02-17T04:30:07.092Z,102324.56
2023-02-17T04:32:34.618Z,102324.44
2023-02-17T04:35:02.196Z,102327.00
2023-02-17T04:37:29.796Z,102333.28
2023-02-17T04:39:57.223Z,102335.13
2023-02-17T04:42:24.722Z,102335.19
2023-02-17T04:44:52.206Z,102334.03
2023-02-17T04:47:19.638Z,102335.00
2023-02-17T04:49:46.866Z,102342.88
2023-02-17T04:52:14.209Z,102341.06
2023-02-17T04:54:41.563Z,102346.31
2023-02-17T04:57:09.108Z,102356.63
2023-02-17T04:59:36.732Z,102346.75
2023-02-17T05:02:05.129Z,102359.03
2023-02-17T05:04:32.781Z,102355.69
2023-02-17T05:07:00.539Z,102360.09
2023-02-17T05:09:28.087Z,102368.78
2023-02-17T05:11:55.760Z,102360.06
2023-02-17T05:14:23.352Z,102361.63
2023-02-17T05:16:50.832Z,102359.84
2023-02-17T05:19:18.205Z,102354.72
2023-02-17T05:21:45.656Z,102357.28
2023-02-17T05:24:12.898Z,102356.22
2023-02-17T05:26:40.294Z,102352.84
2023-02-17T05:29:07.769Z,102356.53
2023-02-17T05:31:35.688Z,102356.59
2023-02-17T05:34:03.202Z,102355.63
2023-02-17T05:36:30.801Z,102362.78
2023-02-17T05:38:58.258Z,102353.03
2023-02-17T05:41:25.732Z,102361.50
2023-02-17T05:43:53.357Z,102354.50
2023-02-17T05:46:20.904Z,102355.47
2023-02-17T05:48:48.756Z,102352.69
2023-02-17T05:51:18.920Z,102348.22
2023-02-17T05:53:46.379Z,102352.63
2023-02-17T05:56:14.049Z,102346.69
2023-02-17T05:58:41.448Z,102360.53
2023-02-17T06:01:10.258Z,102364.00
2023-02-17T06:03:38.135Z,102362.25
2023-02-17T06:06:07.518Z,102357.03
2023-02-17T06:08:36.151Z,102358.72
2023-02-17T06:11:04.145Z,102359.59
2023-02-17T06:13:31.664Z,102363.13
2023-02-17T06:15:59.631Z,102363.19
2023-02-17T06:18:27.242Z,102361.41
2023-02-17T06:20:58.403Z,102354.44
2023-02-17T06:23:26.732Z,102357.16
2023-02-17T06:25:54.847Z,102355.47
2023-02-17T06:28:22.741Z,102355.34
2023-02-17T06:30:50.165Z,102350.94
2023-02-17T06:33:17.618Z,102356.19
2023-02-17T06:35:49.797Z,102359.88
2023-02-17T06:38:17.615Z,102368.88
2023-02-17T06:40:45.435Z,102372.13
2023-02-17T06:43:12.953Z,102382.53
2023-02-17T06:45:40.401Z,102383.34
2023-02-17T06:48:08.016Z,102388.69
2023-02-17T06:50:35.447Z,102387.00
2023-02-17T06:53:03.157Z,102388.91
2023-02-17T06:55:30.697Z,102394.31
2023-02-17T06:57:58.144Z,102396.88
2023-02-17T07:00:27.120Z,102411.66
2023-02-17T07:02:54.781Z,102406.47
2023-02-17T07:05:22.351Z,102416.84
2023-02-17T07:07:49.954Z,102420.25
2023-02-17T07:10:17.500Z,102417.66
2023-02-17T07:12:44.932Z,102426.41
2023-02-17T07:15:12.629Z,102426.56
2023-02-17T07:17:40.069Z,102422.59
2023-02-17T07:20:09.357Z,102422.75
2023-02-17T07:22:36.995Z,102428.88
2023-02-17T07:25:05.402Z,102424.34
2023-02-17T07:27:36.075Z,102421.94
2023-02-17T07:30:05.010Z,102423.50
2023-02-17T07:32:32.589Z,102420.78
2023-02-17T07:35:00.364Z,102423.38
2023-02-17T07:37:28.086Z,102420.78
2023-02-17T07:39:57.351Z,102418.28
2023-02-17T07:42:27.719Z,102421.81
2023-02-17T07:44:55.710Z,102425.41
2023-02-17T07:47:23.359Z,102431.50
2023-02-17T07:49:50.895Z,102430.53
2023-02-17T07:52:18.704Z,102435.81
2023-02-17T07:54:46.166Z,102436.13
2023-02-17T07:57:13.467Z,102446.59
2023-02-17T07:59:41.042Z,102443.22
2023-02-17T08:02:14.845Z,102448.41
2023-02-17T08:04:42.646Z,102450.81
2023-02-17T08:07:10.386Z,102458.13
2023-02-17T08:09:56.531Z,102450.00
2023-02-17T08:12:43.936Z,102459.81
2023-02-17T08:15:13.553Z,102457.84
2023-02-17T08:17:41.017Z,102466.59
2023-02-17T08:20:09.508Z,102462.25
2023-02-17T08:22:37.416Z,102471.00
2023-02-17T08:25:06.401Z,102474.50
2023-02-17T08:27:34.689Z,102472.03
2023-02-17T08:30:02.731Z,102472.09
2023-02-17T08:32:30.230Z,102472.03
2023-02-17T08:34:58.021Z,102475.72
2023-02-17T08:37:27.171Z,102476.03
2023-02-17T08:39:54.781Z,102477.75
2023-02-17T08:42:22.330Z,102473.34
2023-02-17T08:44:49.731Z,102480.22
2023-02-17T08:47:17.181Z,102481.19
2023-02-17T08:49:44.836Z,102482.97
2023-02-17T08:52:12.327Z,102488.28
2023-02-17T08:54:39.997Z,102485.06
2023-02-17T08:57:07.545Z,102490.25
2023-02-17T08:59:35.387Z,102494.53
2023-02-17T09:02:03.224Z,102492.91
2023-02-17T09:04:30.822Z,102490.91
2023-02-17T09:06:59.117Z,102502.44
2023-02-17T09:09:27.761Z,102497.97
2023-02-17T09:11:58.837Z,102491.91
2023-02-17T09:14:27.512Z,102496.31
2023-02-17T09:16:56.295Z,102497.19
2023-02-17T09:19:24.446Z,102501.63
2023-02-17T09:21:52.192Z,102507.75
2023-02-17T09:24:23.250Z,102501.75
2023-02-17T09:26:51.110Z,102500.97
2023-02-17T09:29:18.581Z,102498.69
2023-02-17T09:31:46.575Z,102502.22
2023-02-17T09:34:14.623Z,102500.56
2023-02-17T09:36:42.805Z,102497.16
2023-02-17T09:39:13.473Z,102497.31
2023-02-17T09:41:53.396Z,102502.78
2023-02-17T09:44:27.028Z,102495.88
2023-02-17T09:47:02.658Z,102506.66
2023-02-17T09:49:40.123Z,102511.34
2023-02-17T09:52:27.716Z,102515.84
2023-02-17T09:55:15.315Z,102515.16
2023-02-17T09:57:51.491Z,102527.53
2023-02-17T10:00:41.094Z,102527.59
2023-02-17T10:03:17.385Z,102525.16
2023-02-17T10:06:06.689Z,102527.91
2023-02-17T10:08:45.736Z,102534.88
2023-02-17T10:11:27.779Z,102532.22
2023-02-17T10:13:59.788Z,102531.38
2023-02-17T10:16:34.514Z,102535.91
2023-02-17T10:19:17.793Z,102537.84
2023-02-17T10:22:18.484Z,102530.06
2023-02-17T10:24:46.238Z,102528.47
2023-02-17T10:27:35.439Z,102534.91
2023-02-17T10:30:10.389Z,102527.16
2023-02-17T10:33:00.499Z,102536.25
2023-02-17T10:35:43.253Z,102542.41
2023-02-17T10:38:28.824Z,102538.06
2023-02-17T10:40:56.656Z,102541.59
2023-02-17T10:43:30.077Z,102543.38
2023-02-17T10:45:59.945Z,102543.38
2023-02-17T10:48:42.488Z,102544.41
2023-02-17T10:51:16.150Z,102546.25
2023-02-17T10:53:48.266Z,102550.72
2023-02-17T10:56:22.961Z,102545.59
2023-02-17T10:59:12.155Z,102552.97
2023-02-17T11:01:40.071Z,102557.66
2023-02-17T11:04:13.406Z,102542.94
2023-02-17T11:06:53.405Z,102548.34
2023-02-17T11:09:32.949Z,102543.19
2023-02-17T11:12:04.240Z,102556.38
2023-02-17T11:14:33.806Z,102547.72
2023-02-17T11:17:04.396Z,102546.19
2023-02-17T11:19:35.256Z,102543.84
2023-02-17T11:22:06.120Z,102549.34
2023-02-17T11:24:35.464Z,102543.31
2023-02-17T11:27:10.279Z,102539.97
2023-02-17T11:29:38.234Z,102540.19
2023-02-17T11:32:09.273Z,102534.25
2023-02-17T11:34:39.792Z,102544.03
2023-02-17T11:37:10.102Z,102547.63
2023-02-17T11:39:49.566Z,102541.59
2023-02-17T11:42:20.716Z,102543.31
2023-02-17T11:44:49.010Z,102549.50
2023-02-17T11:47:49.038Z,102549.56
2023-02-17T11:50:40.062Z,102541.00
2023-02-17T11:54:01.860Z,102547.38
2023-02-17T11:56:42.857Z,102538.69
2023-02-17T11:59:19.444Z,102532.59
2023-02-17T12:02:14.504Z,102538.81
2023-02-17T12:04:50.742Z,102533.41
2023-02-17T12:07:24.904Z,102532.66
2023-02-17T12:10:11.093Z,102520.38
2023-02-17T12:12:57.601Z,102518.63
2023-02-17T12:15:37.116Z,102521.34
2023-02-17T12:18:30.002Z,102510.88
2023-02-17T12:21:16.304Z,102508.47
2023-02-17T12:23:58.894Z,102506.94
2023-02-17T12:26:46.710Z,102500.00
2023-02-17T12:29:32.289Z,102497.47
2023-02-17T12:32:06.008Z,102505.44
2023-02-17T12:35:01.423Z,102496.66
2023-02-17T12:37:33.325Z,102499.38
2023-02-17T12:40:15.497Z,102492.34
2023-02-17T12:42:58.171Z,102489.75
2023-02-17T12:45:36.769Z,102484.44
2023-02-17T12:48:14.804Z,102489.66
2023-02-17T12:51:15.783Z,102482.63
2023-02-17T12:54:29.016Z,102465.00
2023-02-17T12:57:13.717Z,102468.50
2023-02-17T12:59:45.298Z,102471.25
2023-02-17T13:02:19.304Z,102472.19
2023-02-17T13:04:51.298Z,102462.47
2023-02-17T13:07:37.093Z,102465.97
2023-02-17T13:10:07.525Z,102466.66
2023-02-17T13:12:40.555Z,102469.22
2023-02-17T13:15:31.362Z,102469.94
2023-02-17T13:18:05.738Z,102455.63
2023-02-17T13:20:51.621Z,102457.13
2023-02-17T13:23:38.176Z,102459.56
2023-02-17T13:26:23.942Z,102460.38
2023-02-17T13:28:54.857Z,102459.31
2023-02-17T13:31:25.495Z,102454.69
2023-02-17T13:33:58.770Z,102445.81
2023-02-17T13:36:29.219Z,102439.81
2023-02-17T13:39:01.832Z,102444.28
2023-02-17T13:41:49.042Z,102447.63
2023-02-17T13:44:28.908Z,102444.97
2023-02-17T13:47:00.752Z,102452.00
2023-02-17T13:49:33.076Z,102451.94
2023-02-17T13:52:16.413Z,102448.47
2023-02-17T13:54:58.815Z,102446.69
2023-02-17T13:57:32.471Z,102450.91
2023-02-17T14:00:19.582Z,102454.50
2023-02-17T14:02:58.302Z,102458.03
2023-02-17T14:05:43.691Z,102451.97
2023-02-17T14:08:24.442Z,102451.13
2023-02-17T14:10:52.997Z,102444.09
2023-02-17T14:13:22.731Z,102445.94
2023-02-17T14:16:01.737Z,102443.34
2023-02-17T14:18:42.180Z,102445.16
2023-02-17T14:21:26.098Z,102445.16
2023-02-17T14:23:55.810Z,102447.78
2023-02-17T14:26:40.165Z,102450.47
2023-02-17T14:29:10.036Z,102445.25
2023-02-17T14:31:42.854Z,102442.59
2023-02-17T14:34:29.502Z,102453.97
2023-02-17T14:37:17.423Z,102449.56
2023-02-17T14:39:44.989Z,102448.63
2023-02-17T14:42:12.409Z,102449.47
2023-02-17T14:44:40.103Z,102450.34
2023-02-17T14:47:07.499Z,102445.84
2023-02-17T14:49:35.133Z,102449.34
2023-02-17T14:52:20.000Z,102449.34
2023-02-17T14:54:48.046Z,102453.75
2023-02-17T14:57:16.862Z,102449.41
2023-02-17T14:59:44.617Z,102452.97
2023-02-17T15:02:20.725Z,102453.78
2023-02-17T15:04:48.195Z,102452.88
2023-02-17T15:07:17.668Z,102454.56
2023-02-17T15:09:47.066Z,102447.47
2023-02-17T15:12:20.121Z,102443.97
2023-02-17T15:14:48.481Z,102443.13
2023-02-17T15:17:16.618Z,102438.78
2023-02-17T15:19:45.017Z,102439.72
2023-02-17T15:22:14.055Z,102445.09
2023-02-17T15:24:41.799Z,102441.47
2023-02-17T15:27:14.879Z,102432.66
2023-02-17T15:29:42.464Z,102434.41
2023-02-17T15:32:19.083Z,102436.19
2023-02-17T15:34:46.981Z,102436.16
2023-02-17T15:37:14.522Z,102443.19
2023-02-17T15:39:41.931Z,102442.34
2023-02-17T15:42:13.914Z,102444.94
2023-02-17T15:44:47.002Z,102451.03
2023-02-17T15:47:18.222Z,102445.72
2023-02-17T15:49:46.620Z,102449.19
2023-02-17T15:52:15.064Z,102451.75
2023-02-17T15:54:43.823Z,102450.81
2023-02-17T15:57:23.833Z,102449.84
2023-02-17T15:59:55.050Z,102455.97
2023-02-17T16:02:24.212Z,102458.53
2023-02-17T16:04:51.590Z,102447.94
2023-02-17T16:07:19.046Z,102444.38
2023-02-17T16:09:46.520Z,102454.03
2023-02-17T16:12:27.013Z,102456.66
2023-02-17T16:14:56.979Z,102448.81
2023-02-17T16:17:25.474Z,102446.13
2023-02-17T16:19:53.081Z,102453.16
2023-02-17T16:22:20.490Z,102449.56
2023-02-17T16:24:48.129Z,102441.66
2023-02-17T16:27:16.814Z,102453.09
2023-02-17T16:29:44.486Z,102453.06
2023-02-17T16:32:12.896Z,102455.53
2023-02-17T16:34:40.787Z,102456.38
2023-02-17T16:37:16.245Z,102455.41
2023-02-17T16:39:44.454Z,102457.09
2023-02-17T16:42:13.278Z,102458.84
2023-02-17T16:44:41.369Z,102465.91
2023-02-17T16:47:19.495Z,102464.91
2023-02-17T16:49:48.177Z,102459.50
2023-02-17T16:52:25.364Z,102463.84
2023-02-17T16:54:54.240Z,102464.69
2023-02-17T16:57:22.249Z,102458.50
2023-02-17T16:59:50.018Z,102464.59
2023-02-17T17:02:17.495Z,102464.53
2023-02-17T17:04:45.063Z,102459.34
2023-02-17T17:07:14.300Z,102459.25
2023-02-17T17:09:45.090Z,102464.47
2023-02-17T17:12:12.939Z,102460.03
2023-02-17T17:14:40.318Z,102460.84
2023-02-17T17:17:11.546Z,102466.97
2023-02-17T17:19:39.196Z,102463.81
2023-02-17T17:22:06.695Z,102469.06
2023-02-17T17:24:34.254Z,102467.13
2023-02-17T17:27:01.609Z,102459.97
2023-02-17T17:29:29.178Z,102470.47
2023-02-17T17:31:56.894Z,102474.84
2023-02-17T17:34:24.475Z,102480.81
2023-02-17T17:36:51.893Z,102485.19
2023-02-17T17:39:22.731Z,102491.41
2023-02-17T17:41:50.661Z,102499.16
2023-02-17T17:44:19.028Z,102504.22
2023-02-17T17:46:46.624Z,102490.91
2023-02-17T17:49:18.760Z,102500.69
2023-02-17T17:51:46.500Z,102507.66
2023-02-17T17:54:14.140Z,102511.84
2023-02-17T17:56:43.460Z,102513.47
2023-02-17T17:59:12.948Z,102512.19
2023-02-17T18:01:40.767Z,102518.31
2023-02-17T18:04:09.395Z,102519.22
2023-02-17T18:06:40.789Z,102518.25
2023-02-17T18:09:15.149Z,102524.25
2023-02-17T18:11:53.321Z,102532.84
2023-02-17T18:14:20.925Z,102532.84
2023-02-17T18:16:49.205Z,102528.63
2023-02-17T18:19:20.146Z,102537.31
2023-02-17T18:21:47.975Z,102541.69
2023-02-17T18:24:15.544Z,102539.09
2023-02-17T18:26:43.091Z,102539.84
2023-02-17T18:29:10.523Z,102536.19
2023-02-17T18:31:38.179Z,102546.63
2023-02-17T18:34:05.602Z,102549.25
2023-02-17T18:36:33.111Z,102549.19
2023-02-17T18:39:00.577Z,102546.22
2023-02-17T18:41:31.093Z,102551.19
2023-02-17T18:44:00.667Z,102554.56
2023-02-17T18:46:28.548Z,102555.16
2023-02-17T18:48:56.478Z,102562.19
2023-02-17T18:51:25.999Z,102551.41
2023-02-17T18:53:54.815Z,102552.22
2023-02-17T18:56:29.035Z,102552.06
2023-02-17T18:58:57.251Z,102548.41
2023-02-17T19:01:30.952Z,102558.78
2023-02-17T19:03:59.474Z,102562.25
2023-02-17T19:06:30.567Z,102564.88
2023-02-17T19:08:58.982Z,102562.41
2023-02-17T19:11:26.574Z,102571.13
2023-02-17T19:13:54.119Z,102565.66
2023-02-17T19:16:29.707Z,102565.44
2023-02-17T19:18:57.942Z,102579.50
2023-02-17T19:21:26.019Z,102573.50
2023-02-17T19:23:55.063Z,102575.03
2023-02-17T19:26:22.836Z,102578.38
2023-02-17T19:28:50.440Z,102585.06
2023-02-17T19:31:20.261Z,102576.44
2023-02-17T19:33:48.166Z,102580.16
2023-02-17T19:36:21.671Z,102589.50
2023-02-17T19:38:50.986Z,102583.41
2023-02-17T19:41:19.472Z,102580.19
2023-02-17T19:43:47.095Z,102582.44
2023-02-17T19:46:18.245Z,102585.78
2023-02-17T19:48:46.320Z,102583.94
2023-02-17T19:51:14.368Z,102581.13
2023-02-17T19:53:45.898Z,102582.84
2023-02-17T19:56:23.444Z,102581.13
2023-02-17T19:58:52.542Z,102578.41
2023-02-17T20:01:27.878Z,102577.50
2023-02-17T20:03:57.569Z,102572.13
2023-02-17T20:06:29.334Z,102575.41
2023-02-17T20:09:05.108Z,102573.63
2023-02-17T20:11:33.217Z,102564.03
2023-02-17T20:14:01.722Z,102568.41
2023-02-17T20:16:30.447Z,102571.03
2023-02-17T20:19:01.256Z,102568.69
2023-02-17T20:21:31.410Z,102572.25
2023-02-17T20:23:59.852Z,102580.06
2023-02-17T20:26:29.958Z,102577.28
2023-02-17T20:28:58.904Z,102574.91
2023-02-17T20:31:27.055Z,102580.53
2023-02-17T20:33:54.929Z,102581.25
2023-02-17T20:36:22.434Z,102587.41
2023-02-17T20:38:50.611Z,102588.19
2023-02-17T20:41:20.217Z,102588.22
2023-02-17T20:43:48.315Z,102594.41
2023-02-17T20:46:29.285Z,102591.81
2023-02-17T20:48:57.264Z,102600.84
2023-02-17T20:51:25.038Z,102598.19
2023-02-17T20:53:52.575Z,102605.09
2023-02-17T20:56:23.172Z,102605.75
2023-02-17T20:58:52.027Z,102600.59
2023-02-17T21:01:20.078Z,102603.31
2023-02-17T21:03:48.163Z,102609.50
2023-02-17T21:06:27.870Z,102603.53
2023-02-17T21:09:04.764Z,102612.28
2023-02-17T21:11:33.216Z,102603.47
2023-02-17T21:14:00.793Z,102612.47
2023-02-17T21:16:34.130Z,102612.75
2023-02-17T21:19:02.328Z,102607.66
2023-02-17T21:21:30.815Z,102610.75
2023-02-17T21:23:59.561Z,102615.06
2023-02-17T21:26:27.735Z,102614.22
2023-02-17T21:28:55.380Z,102610.47
2023-02-17T21:31:22.853Z,102617.22
2023-02-17T21:33:50.346Z,102610.16
2023-02-17T21:36:18.547Z,102615.44
2023-02-17T21:38:46.871Z,102621.00
2023-02-17T21:41:20.559Z,102622.47
2023-02-17T21:44:07.087Z,102625.59
2023-02-17T21:46:35.045Z,102624.97
2023-02-17T21:49:02.505Z,102622.28
2023-02-17T21:51:30.847Z,102625.72
2023-02-17T21:53:59.433Z,102616.44
2023-02-17T21:56:27.015Z,102621.81
2023-02-17T21:58:55.823Z,102618.06
2023-02-17T22:01:25.994Z,102619.00
2023-02-17T22:03:54.081Z,102616.28
2023-02-17T22:06:24.977Z,102625.09
2023-02-17T22:08:52.487Z,102627.97
2023-02-17T22:11:23.483Z,102619.66
2023-02-17T22:13:55.461Z,102626.81
2023-02-17T22:16:23.837Z,102632.09
2023-02-17T22:18:51.678Z,102629.34
2023-02-17T22:21:19.209Z,102632.47
2023-02-17T22:23:46.673Z,102636.94
2023-02-17T22:26:24.832Z,102634.94
2023-02-17T22:28:53.498Z,102625.34
2023-02-17T22:31:23.823Z,102627.81
2023-02-17T22:33:51.593Z,102621.81
2023-02-17T22:36:22.618Z,102615.72
2023-02-17T22:38:51.148Z,102616.00
2023-02-17T22:41:23.916Z,102617.53
2023-02-17T22:43:52.414Z,102618.38
2023-02-17T22:46:21.840Z,102614.13
2023-02-17T22:48:51.282Z,102612.97
2023-02-17T22:51:24.802Z,102622.56
2023-02-17T22:53:52.533Z,102628.63
2023-02-17T22:56:20.946Z,102611.47
2023-02-17T22:58:53.930Z,102613.31
2023-02-17T23:01:22.009Z,102621.16
2023-02-17T23:03:52.957Z,102617.91
2023-02-17T23:06:28.130Z,102614.97
2023-02-17T23:08:56.557Z,102610.44
2023-02-17T23:11:48.749Z,102619.16
2023-02-17T23:14:19.858Z,102625.41
2023-02-17T23:16:47.638Z,102622.75
2023-02-17T23:19:17.574Z,102632.28
2023-02-17T23:21:47.130Z,102620.16
2023-02-17T23:24:16.806Z,102614.94
2023-02-17T23:26:44.563Z,102617.78
2023-02-17T23:29:12.030Z,102623.75
2023-02-17T23:31:39.920Z,102623.91
2023-02-17T23:34:07.979Z,102626.38
2023-02-17T23:36:39.966Z,102622.78
2023-02-17T23:39:07.822Z,102620.97
2023-02-17T23:41:37.208Z,102616.66
2023-02-17T23:44:05.737Z,102617.72
2023-02-17T23:46:33.663Z,102616.03
2023-02-17T23:49:01.234Z,102613.41
2023-02-17T23:51:28.658Z,102615.16
2023-02-17T23:53:56.272Z,102620.06
2023-02-17T23:56:27.295Z,102626.91
2023-02-17T23:58:55.045Z,102625.34
